Weather at Incheon International Airport

Public forecast

Using degrees Celsius for public forecast. Weather courtesy of forecast.io.

Current aviation weather report (METAR) for Incheon International Airport

Retrieved 2020/10/19 15:30 UTC (0 seconds ago):

RKSI 191530Z 06003KT 3500 BR NSC 13/12 Q1026 BECMG 2500

Aviation forecast (TAF) for Incheon International Airport

Retrieved 2020/10/19 12:21 UTC (3 hours ago):

TAF RKSI 191100Z 1912/2018 28006KT 6000 SCT030 TN08/1920Z TX20/2005Z BECMG 1917/1918 06005KT 3000 BR TEMPO 1920/1921 1200 SCT002 BECMG 1923/1924 09006KT 6000 NSW BECMG 2003/2004 29006KT CAVOK BECMG 2014/2015 07006KT 6000 FEW030 BKN130